createdAt,value
2019-05-30T00:00:56.097Z,101332.17
2019-05-30T00:03:25.691Z,101328.08
2019-05-30T00:05:56.331Z,101327.12
2019-05-30T00:08:25.879Z,101329.91
2019-05-30T00:10:56.486Z,101327.37
2019-05-30T00:13:27.853Z,101321.41
2019-05-30T00:15:58.661Z,101324.59
2019-05-30T00:18:28.341Z,101322.11
2019-05-30T00:20:58.740Z,101320.40
2019-05-30T00:23:28.316Z,101327.06
2019-05-30T00:25:59.053Z,101318.47
2019-05-30T00:28:28.686Z,101327.92
2019-05-30T00:30:58.568Z,101323.88
2019-05-30T00:33:28.113Z,101318.63
2019-05-30T00:35:57.722Z,101317.41
2019-05-30T00:38:27.247Z,101314.32
2019-05-30T00:40:57.830Z,101318.17
2019-05-30T00:43:30.624Z,101325.14
2019-05-30T00:46:00.152Z,101312.82
2019-05-30T00:48:29.704Z,101318.47
2019-05-30T00:51:00.220Z,101313.37
2019-05-30T00:53:30.174Z,101315.14
2019-05-30T00:56:01.472Z,101319.39
2019-05-30T00:58:31.050Z,101321.56
2019-05-30T01:01:01.068Z,101316.70
2019-05-30T01:03:30.629Z,101318.02
2019-05-30T01:06:00.810Z,101320.25
2019-05-30T01:08:30.392Z,101314.08
2019-05-30T01:11:01.068Z,101325.59
2019-05-30T01:13:30.774Z,101319.39
2019-05-30T01:16:01.047Z,101317.16
2019-05-30T01:18:30.679Z,101318.37
2019-05-30T01:21:01.305Z,101311.50
2019-05-30T01:23:31.029Z,101319.23
2019-05-30T01:26:01.348Z,101310.03
2019-05-30T01:28:31.100Z,101305.78
2019-05-30T01:31:07.410Z,101309.67
2019-05-30T01:33:32.022Z,101316.15
2019-05-30T01:36:01.633Z,101313.45
2019-05-30T01:38:31.117Z,101316.24
2019-05-30T01:41:02.416Z,101321.87
2019-05-30T01:43:32.109Z,101317.16
2019-05-30T01:46:02.132Z,101322.81
2019-05-30T01:48:31.830Z,101322.32
2019-05-30T01:51:02.380Z,101322.27
2019-05-30T01:53:32.317Z,101315.75
2019-05-30T01:56:02.716Z,101320.39
2019-05-30T01:58:32.391Z,101313.52
2019-05-30T02:01:17.060Z,101320.33
2019-05-30T02:03:33.371Z,101312.45
2019-05-30T02:06:03.335Z,101314.22
2019-05-30T02:08:33.068Z,101312.91
2019-05-30T02:11:03.409Z,101315.14
2019-05-30T02:13:33.043Z,101314.28
2019-05-30T02:16:03.761Z,101310.73
2019-05-30T02:18:33.459Z,101311.29
2019-05-30T02:21:03.752Z,101311.20
2019-05-30T02:23:33.370Z,101305.63
2019-05-30T02:26:04.024Z,101308.50
2019-05-30T02:28:33.728Z,101307.25
2019-05-30T02:31:05.333Z,101308.11
2019-05-30T02:33:34.810Z,101305.17
2019-05-30T02:36:06.271Z,101306.88
2019-05-30T02:38:35.849Z,101319.08
2019-05-30T02:41:07.482Z,101316.61
2019-05-30T02:43:36.951Z,101318.31
2019-05-30T02:46:08.035Z,101316.15
2019-05-30T02:48:57.247Z,101318.88
2019-05-30T02:51:10.790Z,101317.16
2019-05-30T02:53:40.989Z,101327.58
2019-05-30T02:56:12.448Z,101323.73
2019-05-30T02:58:41.827Z,101324.59
2019-05-30T03:01:14.170Z,101322.41
2019-05-30T03:03:42.737Z,101327.37
2019-05-30T03:06:13.873Z,101325.59
2019-05-30T03:08:43.747Z,101327.28
2019-05-30T03:11:15.587Z,101325.96
2019-05-30T03:13:45.060Z,101329.45
2019-05-30T03:16:14.795Z,101327.22
2019-05-30T03:18:44.629Z,101330.21
2019-05-30T03:21:15.532Z,101325.81
2019-05-30T03:23:45.524Z,101328.90
2019-05-30T03:26:16.051Z,101325.91
2019-05-30T03:28:45.935Z,101324.50
2019-05-30T03:31:27.702Z,101320.55
2019-05-30T03:33:49.969Z,101322.32
2019-05-30T03:36:28.354Z,101321.10
2019-05-30T03:38:50.986Z,101322.81
2019-05-30T03:41:20.863Z,101328.08
2019-05-30T03:43:50.431Z,101329.91
2019-05-30T03:46:27.647Z,101319.09
2019-05-30T03:48:59.215Z,101330.30
2019-05-30T03:51:30.716Z,101320.86
2019-05-30T03:54:02.317Z,101326.91
2019-05-30T03:56:39.204Z,101331.71
2019-05-30T03:59:25.405Z,101330.30
2019-05-30T04:02:30.283Z,101335.11
2019-05-30T04:05:16.580Z,101328.08
2019-05-30T04:07:53.461Z,101332.84
2019-05-30T04:10:27.321Z,101330.21
2019-05-30T04:13:15.236Z,101331.47
2019-05-30T04:15:44.395Z,101336.72
2019-05-30T04:18:14.654Z,101337.12
2019-05-30T04:20:45.229Z,101338.74
2019-05-30T04:23:16.636Z,101337.95
2019-05-30T04:25:46.127Z,101349.08
2019-05-30T04:28:16.330Z,101345.06
2019-05-30T04:30:46.969Z,101350.23
2019-05-30T04:33:29.485Z,101351.85
2019-05-30T04:35:47.824Z,101357.52
2019-05-30T04:38:19.242Z,101357.05
2019-05-30T04:40:48.694Z,101357.45
2019-05-30T04:43:20.019Z,101356.59
2019-05-30T04:45:49.548Z,101355.28
2019-05-30T04:48:20.988Z,101353.88
2019-05-30T04:50:50.699Z,101351.80
2019-05-30T04:53:20.949Z,101351.18
2019-05-30T04:55:50.818Z,101346.93
2019-05-30T04:58:23.781Z,101352.50
2019-05-30T05:00:52.214Z,101349.02
2019-05-30T05:03:41.598Z,101360.30
2019-05-30T05:05:53.089Z,101358.06
2019-05-30T05:08:22.658Z,101347.54
2019-05-30T05:10:52.280Z,101345.21
2019-05-30T05:13:22.604Z,101355.88
2019-05-30T05:15:52.704Z,101349.67
2019-05-30T05:18:23.465Z,101356.09
2019-05-30T05:20:53.136Z,101353.77
2019-05-30T05:23:23.558Z,101353.24
2019-05-30T05:26:01.078Z,101352.29
2019-05-30T05:28:24.776Z,101353.45
2019-05-30T05:30:54.336Z,101353.45
2019-05-30T05:33:24.734Z,101358.55
2019-05-30T05:35:54.400Z,101361.42
2019-05-30T05:38:24.410Z,101353.89
2019-05-30T05:40:54.280Z,101352.33
2019-05-30T05:43:24.502Z,101350.19
2019-05-30T05:45:54.249Z,101357.43
2019-05-30T05:48:24.706Z,101354.80
2019-05-30T05:50:54.394Z,101357.27
2019-05-30T05:53:25.154Z,101354.02
2019-05-30T05:55:54.857Z,101357.50
2019-05-30T05:58:26.373Z,101355.33
2019-05-30T06:00:55.779Z,101361.36
2019-05-30T06:03:25.333Z,101358.66
2019-05-30T06:05:55.520Z,101365.91
2019-05-30T06:08:25.818Z,101367.75
2019-05-30T06:10:55.604Z,101371.30
2019-05-30T06:13:25.242Z,101375.55
2019-05-30T06:15:54.806Z,101367.83
2019-05-30T06:18:24.354Z,101371.25
2019-05-30T06:20:53.900Z,101372.47
2019-05-30T06:23:23.813Z,101371.75
2019-05-30T06:25:53.388Z,101369.41
2019-05-30T06:28:24.065Z,101365.56
2019-05-30T06:30:53.787Z,101372.18
2019-05-30T06:33:24.633Z,101369.02
2019-05-30T06:35:54.567Z,101372.14
2019-05-30T06:38:25.190Z,101378.27
2019-05-30T06:40:54.867Z,101379.19
2019-05-30T06:43:26.031Z,101367.50
2019-05-30T06:45:55.780Z,101384.30
2019-05-30T06:48:26.730Z,101382.22
2019-05-30T06:50:56.492Z,101381.66
2019-05-30T06:53:27.629Z,101381.03
2019-05-30T06:55:57.513Z,101378.23
2019-05-30T06:58:41.514Z,101381.95
2019-05-30T07:01:00.003Z,101378.70
2019-05-30T07:03:30.618Z,101381.20
2019-05-30T07:06:00.809Z,101379.09
2019-05-30T07:08:30.962Z,101376.95
2019-05-30T07:11:00.515Z,101382.17
2019-05-30T07:13:31.628Z,101373.41
2019-05-30T07:16:01.307Z,101382.59
2019-05-30T07:18:33.727Z,101387.98
2019-05-30T07:21:02.143Z,101383.97
2019-05-30T07:23:32.086Z,101387.48
2019-05-30T07:26:03.560Z,101389.48
2019-05-30T07:28:34.205Z,101389.94
2019-05-30T07:31:03.888Z,101388.16
2019-05-30T07:33:34.547Z,101400.97
2019-05-30T07:36:04.500Z,101400.80
2019-05-30T07:38:34.737Z,101404.51
2019-05-30T07:41:04.445Z,101412.31
2019-05-30T07:43:35.245Z,101417.81
2019-05-30T07:46:04.969Z,101411.97
2019-05-30T07:48:34.514Z,101422.12
2019-05-30T07:51:04.137Z,101418.34
2019-05-30T07:53:34.869Z,101420.34
2019-05-30T07:56:05.689Z,101428.03
2019-05-30T07:58:35.423Z,101424.94
2019-05-30T08:01:05.252Z,101428.38
2019-05-30T08:03:35.126Z,101426.48
2019-05-30T08:06:04.966Z,101424.20
2019-05-30T08:08:34.614Z,101428.84
2019-05-30T08:11:09.471Z,101428.53
2019-05-30T08:13:35.504Z,101430.72
2019-05-30T08:16:05.236Z,101420.61
2019-05-30T08:18:35.864Z,101420.73
2019-05-30T08:21:05.642Z,101428.36
2019-05-30T08:23:36.301Z,101430.76
2019-05-30T08:26:06.174Z,101425.09
2019-05-30T08:28:36.376Z,101428.35
2019-05-30T08:31:06.018Z,101428.17
2019-05-30T08:33:35.694Z,101429.95
2019-05-30T08:36:06.031Z,101429.31
2019-05-30T08:38:37.313Z,101434.23
2019-05-30T08:41:07.128Z,101423.86
2019-05-30T08:43:37.560Z,101422.36
2019-05-30T08:46:07.274Z,101417.28
2019-05-30T08:48:38.200Z,101431.62
2019-05-30T08:51:08.300Z,101422.77
2019-05-30T08:53:38.456Z,101417.45
2019-05-30T08:56:09.788Z,101423.02
2019-05-30T08:58:39.320Z,101415.58
2019-05-30T09:01:08.964Z,101411.36
2019-05-30T09:03:38.883Z,101405.58
2019-05-30T09:06:09.551Z,101403.72
2019-05-30T09:08:40.034Z,101401.80
2019-05-30T09:11:09.750Z,101400.68
2019-05-30T09:13:40.406Z,101409.27
2019-05-30T09:16:09.999Z,101404.10
2019-05-30T09:18:40.291Z,101402.14
2019-05-30T09:21:10.847Z,101400.03
2019-05-30T09:23:41.860Z,101397.88
2019-05-30T09:26:11.776Z,101396.05
2019-05-30T09:28:42.227Z,101396.61
2019-05-30T09:31:11.861Z,101397.05
2019-05-30T09:33:42.610Z,101404.01
2019-05-30T09:36:13.821Z,101394.87
2019-05-30T09:38:43.700Z,101401.86
2019-05-30T09:41:13.369Z,101389.70
2019-05-30T09:43:44.607Z,101394.67
2019-05-30T09:46:14.506Z,101403.34
2019-05-30T09:48:44.827Z,101403.89
2019-05-30T09:51:14.383Z,101417.19
2019-05-30T09:53:44.050Z,101418.55
2019-05-30T09:56:13.562Z,101424.73
2019-05-30T09:58:44.004Z,101432.32
2019-05-30T10:01:13.721Z,101432.55
2019-05-30T10:03:44.815Z,101429.16
2019-05-30T10:06:28.414Z,101436.20
2019-05-30T10:08:47.717Z,101433.64
2019-05-30T10:11:17.851Z,101427.89
2019-05-30T10:13:48.078Z,101429.13
2019-05-30T10:16:18.834Z,101428.96
2019-05-30T10:18:49.148Z,101427.45
2019-05-30T10:21:18.753Z,101414.23
2019-05-30T10:23:49.463Z,101418.91
2019-05-30T10:26:19.148Z,101417.77
2019-05-30T10:28:49.544Z,101421.55
2019-05-30T10:31:19.285Z,101410.15
2019-05-30T10:33:49.358Z,101408.43
2019-05-30T10:36:20.234Z,101419.75
2019-05-30T10:38:50.416Z,101425.47
2019-05-30T10:41:20.632Z,101430.95
2019-05-30T10:43:51.153Z,101434.53
2019-05-30T10:46:20.862Z,101440.37
2019-05-30T10:48:51.048Z,101436.05
2019-05-30T10:51:21.042Z,101437.26
2019-05-30T10:53:52.198Z,101437.37
2019-05-30T10:56:22.242Z,101430.69
2019-05-30T10:58:52.909Z,101436.41
2019-05-30T11:01:22.513Z,101438.00
2019-05-30T11:03:52.619Z,101439.09
2019-05-30T11:07:04.560Z,101437.73
2019-05-30T11:09:24.408Z,101442.94
2019-05-30T11:11:54.965Z,101448.58
2019-05-30T11:14:24.530Z,101454.72
2019-05-30T11:16:55.492Z,101460.05
2019-05-30T11:19:25.090Z,101460.13
2019-05-30T11:21:54.996Z,101453.80
2019-05-30T11:24:25.581Z,101460.13
2019-05-30T11:26:55.947Z,101454.49
2019-05-30T11:29:26.647Z,101458.34
2019-05-30T11:31:57.009Z,101462.12
2019-05-30T11:34:26.649Z,101460.83
2019-05-30T11:36:57.257Z,101459.08
2019-05-30T11:39:26.878Z,101463.24
2019-05-30T11:41:57.654Z,101466.63
2019-05-30T11:44:27.712Z,101468.89
2019-05-30T11:46:57.765Z,101469.23
2019-05-30T11:49:27.412Z,101468.65
2019-05-30T11:51:57.912Z,101467.98
2019-05-30T11:54:27.482Z,101470.80
2019-05-30T11:56:58.135Z,101473.63
2019-05-30T11:59:27.702Z,101473.36
2019-05-30T12:01:58.387Z,101473.25
2019-05-30T12:04:28.104Z,101477.79
2019-05-30T12:06:58.831Z,101473.16
2019-05-30T12:09:29.718Z,101475.81
2019-05-30T12:11:59.800Z,101476.08
2019-05-30T12:14:29.341Z,101479.46
2019-05-30T12:16:59.474Z,101471.87
2019-05-30T12:19:29.101Z,101471.78
2019-05-30T12:21:59.820Z,101467.19
2019-05-30T12:24:29.791Z,101459.91
2019-05-30T12:27:00.122Z,101468.56
2019-05-30T12:29:29.900Z,101469.89
2019-05-30T12:32:00.674Z,101475.92
2019-05-30T12:34:30.977Z,101473.00
2019-05-30T12:37:00.611Z,101475.38
2019-05-30T12:39:31.816Z,101472.99
2019-05-30T12:42:01.573Z,101473.73
2019-05-30T12:44:31.104Z,101471.23
2019-05-30T12:47:01.355Z,101473.13
2019-05-30T12:49:30.920Z,101474.80
2019-05-30T12:52:00.708Z,101475.66
2019-05-30T12:54:30.361Z,101476.70
2019-05-30T12:57:00.653Z,101479.23
2019-05-30T12:59:30.261Z,101484.80
2019-05-30T13:02:01.229Z,101482.66
2019-05-30T13:04:31.044Z,101490.59
2019-05-30T13:07:01.299Z,101489.54
2019-05-30T13:09:30.950Z,101494.66
2019-05-30T13:12:00.652Z,101502.05
2019-05-30T13:14:30.332Z,101491.86
2019-05-30T13:17:00.186Z,101498.13
2019-05-30T13:19:29.736Z,101495.61
2019-05-30T13:21:59.303Z,101498.98
2019-05-30T13:24:28.848Z,101495.41
2019-05-30T13:27:06.715Z,101494.98
2019-05-30T13:29:36.264Z,101500.16
2019-05-30T13:32:06.699Z,101493.50
2019-05-30T13:34:36.384Z,101490.20
2019-05-30T13:37:07.170Z,101490.73
2019-05-30T13:39:36.743Z,101491.51
2019-05-30T13:42:07.778Z,101496.53
2019-05-30T13:44:37.609Z,101492.64
2019-05-30T13:47:07.171Z,101493.45
2019-05-30T13:49:37.054Z,101491.98
2019-05-30T13:52:07.286Z,101495.88
2019-05-30T13:54:37.450Z,101498.80
2019-05-30T13:57:07.824Z,101498.95
2019-05-30T13:59:37.447Z,101491.86
2019-05-30T14:02:08.165Z,101492.91
2019-05-30T14:04:37.859Z,101497.42
2019-05-30T14:07:08.479Z,101496.69
2019-05-30T14:09:38.086Z,101503.42
2019-05-30T14:12:08.723Z,101500.39
2019-05-30T14:14:38.509Z,101502.65
2019-05-30T14:17:10.905Z,101514.95
2019-05-30T14:19:44.129Z,101506.66
2019-05-30T14:22:13.743Z,101514.21
2019-05-30T14:24:43.731Z,101520.28
2019-05-30T14:27:13.337Z,101521.14
2019-05-30T14:29:42.924Z,101523.70
2019-05-30T14:32:12.476Z,101524.75
2019-05-30T14:34:42.036Z,101525.22
2019-05-30T14:37:12.610Z,101510.28
2019-05-30T14:39:42.244Z,101519.66
2019-05-30T14:42:11.791Z,101516.04
2019-05-30T14:44:50.906Z,101517.91
2019-05-30T14:47:20.537Z,101515.49
2019-05-30T14:49:50.052Z,101509.08
2019-05-30T14:52:19.662Z,101508.10
2019-05-30T14:54:49.293Z,101509.98
2019-05-30T14:57:18.848Z,101512.58
2019-05-30T14:59:49.022Z,101515.30
2019-05-30T15:02:18.596Z,101514.05
2019-05-30T15:04:48.149Z,101514.21
2019-05-30T15:07:17.698Z,101517.32
2019-05-30T15:09:47.391Z,101507.05
2019-05-30T15:12:17.023Z,101513.73
2019-05-30T15:14:46.611Z,101515.88
2019-05-30T15:17:16.500Z,101510.78
2019-05-30T15:19:46.339Z,101511.16
2019-05-30T15:22:18.324Z,101502.91
2019-05-30T15:24:47.347Z,101503.92
2019-05-30T15:27:20.076Z,101497.44
2019-05-30T15:29:48.227Z,101492.33
2019-05-30T15:32:17.782Z,101493.80
2019-05-30T15:34:47.330Z,101502.86
2019-05-30T15:37:17.047Z,101503.45
2019-05-30T15:39:46.679Z,101505.90
2019-05-30T15:42:17.545Z,101507.69
2019-05-30T15:44:47.395Z,101507.76
2019-05-30T15:47:18.351Z,101503.05
2019-05-30T15:49:51.975Z,101501.61
2019-05-30T15:52:19.311Z,101504.64
2019-05-30T15:54:48.994Z,101497.96
2019-05-30T15:57:19.619Z,101509.47
2019-05-30T15:59:49.311Z,101498.76
2019-05-30T16:02:18.862Z,101499.14
2019-05-30T16:04:48.435Z,101503.77
2019-05-30T16:07:18.831Z,101505.45
2019-05-30T16:09:48.482Z,101502.70
2019-05-30T16:12:19.296Z,101501.06
2019-05-30T16:14:48.928Z,101487.09
2019-05-30T16:17:19.580Z,101488.47
2019-05-30T16:19:49.334Z,101482.91
2019-05-30T16:22:20.446Z,101494.80
2019-05-30T16:24:50.233Z,101486.14
2019-05-30T16:27:20.039Z,101488.20
2019-05-30T16:29:49.595Z,101490.83
2019-05-30T16:32:20.309Z,101485.28
2019-05-30T16:34:49.849Z,101486.31
2019-05-30T16:37:20.178Z,101484.05
2019-05-30T16:40:04.464Z,101485.38
2019-05-30T16:42:22.290Z,101484.48
2019-05-30T16:44:51.936Z,101484.15
2019-05-30T16:47:22.498Z,101478.20
2019-05-30T16:49:52.402Z,101471.70
2019-05-30T16:52:23.151Z,101477.55
2019-05-30T16:54:52.885Z,101479.40
2019-05-30T16:57:22.737Z,101471.44
2019-05-30T16:59:52.340Z,101473.58
2019-05-30T17:02:22.844Z,101482.94
2019-05-30T17:04:52.516Z,101476.88
2019-05-30T17:07:23.300Z,101472.20
2019-05-30T17:09:53.030Z,101476.05
2019-05-30T17:12:23.681Z,101478.70
2019-05-30T17:14:53.285Z,101466.39
2019-05-30T17:17:24.115Z,101478.11
2019-05-30T17:19:53.747Z,101463.83
2019-05-30T17:22:23.343Z,101466.86
2019-05-30T17:24:54.557Z,101465.06
2019-05-30T17:27:24.401Z,101463.73
2019-05-30T17:29:53.951Z,101463.61
2019-05-30T17:32:23.831Z,101455.18
2019-05-30T17:34:53.463Z,101461.84
2019-05-30T17:37:24.278Z,101461.47
2019-05-30T17:39:54.144Z,101458.59
2019-05-30T17:42:25.528Z,101456.73
2019-05-30T17:44:55.158Z,101457.55
2019-05-30T17:47:25.481Z,101450.34
2019-05-30T17:49:55.359Z,101459.06
2019-05-30T17:52:25.771Z,101457.73
2019-05-30T17:54:55.303Z,101464.72
2019-05-30T17:57:25.809Z,101463.77
2019-05-30T17:59:55.556Z,101457.99
2019-05-30T18:02:26.384Z,101461.16
2019-05-30T18:04:55.990Z,101464.02
2019-05-30T18:07:25.539Z,101460.05
2019-05-30T18:09:55.391Z,101464.20
2019-05-30T18:12:25.218Z,101467.12
2019-05-30T18:14:55.055Z,101468.19
2019-05-30T18:17:25.165Z,101469.52
2019-05-30T18:19:54.887Z,101470.84
2019-05-30T18:22:25.526Z,101466.61
2019-05-30T18:24:55.062Z,101472.77
2019-05-30T18:27:25.856Z,101473.83
2019-05-30T18:29:55.480Z,101474.05
2019-05-30T18:32:25.951Z,101471.48
2019-05-30T18:34:57.428Z,101474.23
2019-05-30T18:37:26.974Z,101478.46
2019-05-30T18:39:56.562Z,101474.10
2019-05-30T18:42:27.309Z,101476.75
2019-05-30T18:44:56.978Z,101483.03
2019-05-30T18:47:27.005Z,101477.82
2019-05-30T18:49:56.663Z,101479.31
2019-05-30T18:52:26.220Z,101477.91
2019-05-30T18:54:55.795Z,101477.78
2019-05-30T18:57:26.566Z,101485.64
2019-05-30T18:59:56.210Z,101486.11
2019-05-30T19:02:27.067Z,101481.88
2019-05-30T19:04:56.706Z,101486.33
2019-05-30T19:07:26.727Z,101479.82
2019-05-30T19:09:56.432Z,101483.42
2019-05-30T19:12:26.242Z,101477.13
2019-05-30T19:14:55.798Z,101479.73
2019-05-30T19:17:25.664Z,101485.17
2019-05-30T19:19:55.200Z,101485.77
2019-05-30T19:22:25.950Z,101490.21
2019-05-30T19:25:10.694Z,101494.83
2019-05-30T19:27:40.522Z,101502.78
2019-05-30T19:30:11.901Z,101497.09
2019-05-30T19:32:41.704Z,101500.73
2019-05-30T19:35:14.441Z,101506.23
2019-05-30T19:37:44.121Z,101504.06
2019-05-30T19:40:14.385Z,101510.22
2019-05-30T19:42:44.018Z,101510.05
2019-05-30T19:45:14.635Z,101507.34
2019-05-30T19:47:44.268Z,101514.23
2019-05-30T19:50:15.647Z,101514.44
2019-05-30T19:52:46.970Z,101513.88
2019-05-30T19:55:16.727Z,101514.82
2019-05-30T19:57:46.483Z,101511.17
2019-05-30T20:00:16.506Z,101512.97
2019-05-30T20:02:46.718Z,101516.36
2019-05-30T20:05:16.517Z,101521.31
2019-05-30T20:07:46.334Z,101524.52
2019-05-30T20:10:17.988Z,101526.05
2019-05-30T20:12:47.546Z,101529.50
2019-05-30T20:15:17.651Z,101523.84
2019-05-30T20:17:47.227Z,101520.43
2019-05-30T20:20:17.949Z,101528.97
2019-05-30T20:22:47.484Z,101533.53
2019-05-30T20:25:18.632Z,101539.98
2019-05-30T20:27:48.217Z,101539.98
2019-05-30T20:30:18.462Z,101532.62
2019-05-30T20:32:48.030Z,101536.77
2019-05-30T20:35:17.971Z,101537.23
2019-05-30T20:37:47.516Z,101539.15
2019-05-30T20:40:17.989Z,101539.82
2019-05-30T20:42:47.547Z,101545.97
2019-05-30T20:45:17.801Z,101540.88
2019-05-30T20:47:47.559Z,101544.11
2019-05-30T20:50:18.340Z,101542.34
2019-05-30T20:52:47.902Z,101546.70
2019-05-30T20:55:18.361Z,101550.88
2019-05-30T20:57:47.922Z,101551.08
2019-05-30T21:00:19.084Z,101554.31
2019-05-30T21:02:49.135Z,101561.40
2019-05-30T21:05:19.000Z,101565.48
2019-05-30T21:07:50.942Z,101572.66
2019-05-30T21:10:20.858Z,101570.72
2019-05-30T21:12:52.083Z,101573.83
2019-05-30T21:15:21.776Z,101571.65
2019-05-30T21:17:53.569Z,101572.05
2019-05-30T21:20:23.150Z,101576.52
2019-05-30T21:22:52.750Z,101577.27
2019-05-30T21:25:22.320Z,101581.16
2019-05-30T21:27:51.862Z,101574.73
2019-05-30T21:30:21.490Z,101582.95
2019-05-30T21:32:51.283Z,101578.98
2019-05-30T21:35:21.106Z,101582.95
2019-05-30T21:37:50.911Z,101576.72
2019-05-30T21:40:20.734Z,101578.43
2019-05-30T21:43:04.846Z,101582.59
2019-05-30T21:45:21.705Z,101591.95
2019-05-30T21:47:51.245Z,101585.44
2019-05-30T21:50:20.969Z,101586.02
2019-05-30T21:52:50.623Z,101588.75
2019-05-30T21:55:20.307Z,101591.90
2019-05-30T21:57:50.291Z,101585.55
2019-05-30T22:00:50.709Z,101593.42
2019-05-30T22:03:20.480Z,101593.97
2019-05-30T22:05:52.124Z,101597.19
2019-05-30T22:08:21.819Z,101597.30
2019-05-30T22:10:51.755Z,101594.73
2019-05-30T22:13:21.385Z,101584.73
2019-05-30T22:15:52.160Z,101592.67
2019-05-30T22:18:21.774Z,101592.39
2019-05-30T22:20:52.106Z,101597.22
2019-05-30T22:23:21.766Z,101597.69
2019-05-30T22:25:51.333Z,101592.12
2019-05-30T22:28:21.222Z,101594.48
2019-05-30T22:30:50.754Z,101590.24
2019-05-30T22:33:20.644Z,101587.02
2019-05-30T22:35:51.012Z,101592.39
2019-05-30T22:38:20.752Z,101586.35
2019-05-30T22:40:50.340Z,101587.20
2019-05-30T22:43:25.202Z,101590.80
2019-05-30T22:45:52.440Z,101587.41
2019-05-30T22:48:22.021Z,101583.16
2019-05-30T22:50:52.786Z,101584.37
2019-05-30T22:53:22.438Z,101575.69
2019-05-30T22:55:53.499Z,101580.59
2019-05-30T22:58:23.150Z,101579.19
2019-05-30T23:00:54.004Z,101577.44
2019-05-30T23:03:23.752Z,101580.51
2019-05-30T23:05:53.398Z,101583.05
2019-05-30T23:08:23.055Z,101578.41
2019-05-30T23:10:53.795Z,101584.87
2019-05-30T23:13:23.499Z,101577.44
2019-05-30T23:15:54.189Z,101579.08
2019-05-30T23:18:23.873Z,101579.47
2019-05-30T23:20:53.440Z,101581.17
2019-05-30T23:23:23.009Z,101582.03
2019-05-30T23:25:53.338Z,101579.47
2019-05-30T23:28:22.996Z,101578.53
2019-05-30T23:30:53.938Z,101570.67
2019-05-30T23:33:23.619Z,101574.56
2019-05-30T23:35:54.419Z,101576.42
2019-05-30T23:38:24.235Z,101578.53
2019-05-30T23:40:55.060Z,101582.77
2019-05-30T23:43:25.098Z,101580.59
2019-05-30T23:45:55.758Z,101575.69
2019-05-30T23:48:25.362Z,101582.39
2019-05-30T23:50:55.970Z,101578.53
2019-05-30T23:53:25.698Z,101571.45
2019-05-30T23:55:56.313Z,101571.45
2019-05-30T23:58:26.055Z,101571.14
